• Join FlightAware (Why Join?)
  • Login
  • US Flag 
02:00PM EDT


 

Airport Tracker/Info


-or-


 

Live Flight TrackerFlight Track Log ✈ N23742 ✈ 20-May-2013 ✈ KCVG - KGMU

Flight Track Log - Related Links

Times and Time Zones

All times are in EDT time to prevent confusion due to time zone crossing. See the N23742 flight status page for this flight to view local times or setup timezone preferences in your user account.

Time Position Orientation Groundspeed Altitude Reporting Facility
EDT Latitude Longitude Course Direction KTS MPH feet Rate Location/Type
03:01PM 39.0500 -84.6667 237° Southwest 110 127 1,300  Level Cincinnati TRACON
03:02PM 39.0333 -84.7000 237° Southwest 111 128 2,400 900 Climbing Cincinnati TRACON
03:03PM 39.0167 -84.6833 142° Southeast 123 142 3,200 780 Climbing Cincinnati TRACON
03:04PM 38.9833 -84.6500 142° Southeast 148 170 4,000 900 Climbing Cincinnati TRACON
03:05PM 38.9500 -84.6167 142° Southeast 136 157 5,000 900 Climbing Cincinnati TRACON
03:06PM 38.9225 -84.5922 145° Southeast 171 197 5,800 840 Climbing Indianapolis Center
03:07PM 38.8903 -84.5575 140° Southeast 140 161 6,700 600 Climbing Indianapolis Center
03:08PM 38.8594 -84.5269 142° Southeast 150 173 7,100 480 Climbing Indianapolis Center
03:09PM 38.8139 -84.4792 141° Southeast 179 206 7,700 420 Climbing Indianapolis Center
03:10PM 38.7786 -84.4531 150° Southeast 150 173 8,000 120 Climbing Indianapolis Center
03:11PM 38.7325 -84.4303 159° South 171 197 8,000  Level Indianapolis Center
03:12PM 38.6842 -84.4047 158° South 184 212 8,000 240 Level Indianapolis Center
03:13PM 38.6361 -84.3767 155° Southeast 173 199 8,600 480 Climbing Indianapolis Center
03:14PM 38.5964 -84.3547 157° South 158 182 9,100 240 Climbing Indianapolis Center
03:15PM 38.5511 -84.3289 156° South 176 203 9,100  Level Indianapolis Center
03:16PM 38.5033 -84.3028 157° South 185 213 9,100 -60 Level Indianapolis Center
03:17PM 38.4542 -84.2736 155° Southeast 192 221 9,000 -60 Descending Indianapolis Center
03:18PM 38.3964 -84.2431 157° South 193 222 9,000  Level Indianapolis Center
03:19PM 38.3481 -84.2156 156° South 191 220 9,000  Level Indianapolis Center
03:20PM 38.2986 -84.1886 157° South 191 220 9,000  Level Indianapolis Center
03:21PM 38.2500 -84.1606 156° South 191 220 9,000  Level Indianapolis Center
03:22PM 38.2025 -84.1308 154° Southeast 190 219 9,000  Level Indianapolis Center
03:24PM 38.1544 -84.1058 158° South 187 215 9,000  Level Indianapolis Center
03:25PM 38.0972 -84.0736 156° South 191 220 9,000  Level Indianapolis Center
03:26PM 38.0478 -84.0456 156° South 194 223 9,000  Level Indianapolis Center
03:27PM 37.9978 -84.0192 157° South 196 226 9,000  Level Indianapolis Center
03:28PM 37.9481 -83.9911 156° South 197 227 9,000  Level Indianapolis Center
03:29PM 37.8994 -83.9614 154° Southeast 194 223 9,000  Level Indianapolis Center
03:30PM 37.8408 -83.9303 157° South 196 226 9,000  Level Indianapolis Center
03:31PM 37.7917 -83.9042 157° South 193 222 9,000  Level Indianapolis Center
03:32PM 37.7411 -83.8758 156° South 196 226 9,000  Level Indianapolis Center
03:33PM 37.6919 -83.8492 157° South 193 222 9,000  Level Indianapolis Center
03:34PM 37.6414 -83.8194 155° Southeast 198 228 9,000  Level Indianapolis Center
03:35PM 37.5908 -83.7931 158° South 196 226 9,000  Level Indianapolis Center
03:36PM 37.5331 -83.7600 156° South 195 224 9,000  Level Indianapolis Center
03:37PM 37.4822 -83.7322 157° South 198 228 9,000  Level Indianapolis Center
03:38PM 37.4314 -83.7069 158° South 197 227 9,000  Level Indianapolis Center
03:39PM 37.3800 -83.6786 156° South 200 230 9,000  Level Indianapolis Center
03:40PM 37.3300 -83.6506 156° South 197 227 9,000  Level Indianapolis Center
03:41PM 37.2697 -83.6167 156° South 202 232 9,000  Level Indianapolis Center
03:42PM 37.2169 -83.5886 157° South 204 235 9,000  Level Indianapolis Center
03:43PM 37.1639 -83.5608 157° South 206 237 9,000  Level Indianapolis Center
03:44PM 37.1122 -83.5317 156° South 204 235 9,000  Level Indianapolis Center
03:45PM 37.0606 -83.5036 157° South 203 234 9,000  Level Indianapolis Center
03:46PM 36.9997 -83.4728 158° South 202 232 9,000  Level Indianapolis Center
03:47PM 36.9486 -83.4442 156° South 201 231 9,000  Level Indianapolis Center
03:48PM 36.8972 -83.4167 157° South 201 231 9,000  Level Indianapolis Center
03:49PM 36.8458 -83.3886 156° South 201 231 9,000  Level Indianapolis Center
03:50PM 36.7944 -83.3617 157° South 201 231 9,000  Level Indianapolis Center
03:51PM 36.7344 -83.3311 158° South 200 230 9,000  Level Indianapolis Center
03:52PM 36.6831 -83.3022 156° South 202 232 9,000  Level Indianapolis Center
03:54PM 36.6308 -83.2744 157° South 203 234 9,000  Level Indianapolis Center
03:55PM 36.5797 -83.2467 156° South 202 232 9,000  Level Indianapolis Center
03:56PM 36.5269 -83.2186 157° South 204 235 9,000  Level Indianapolis Center
03:57PM 36.4656 -83.1869 157° South 204 235 9,000  Level Indianapolis Center
03:58PM 36.4122 -83.1597 158° South 206 237 9,000  Level Indianapolis Center
03:59PM 36.3617 -83.1314 156° South 201 231 9,000 60 Level Indianapolis Center
03:59PM 36.3344 -83.1186 159° South 211 243 9,100 60 Climbing Atlanta Center
04:00PM 36.2819 -83.0908 157° South 211 243 9,100 -60 Level Atlanta Center
04:01PM 36.2317 -83.0631 156° South 211 243 9,000 -60 Descending Atlanta Center
04:02PM 36.1794 -83.0356 157° South 211 243 9,000  Level Atlanta Center
04:04PM 36.1226 -82.9962 151° Southeast  Level FlightAware Approximate
04:11PM 35.7965 -82.8060 158° South  Level FlightAware Approximate
04:12PM 35.7489 -82.7821 158° South  Level FlightAware Approximate
04:13PM 35.7013 -82.7582 158° South  Level FlightAware Approximate
04:14PM 35.6536 -82.7344 158° South  Level FlightAware Approximate
04:15PM 35.6060 -82.7106 158° South  Level FlightAware Approximate
04:16PM 35.5583 -82.6868 158° South  Level FlightAware Approximate
04:17PM 35.5107 -82.6631 158° South  Level FlightAware Approximate
04:18PM 35.4630 -82.6393 158° South  Level FlightAware Approximate
04:19PM 35.4154 -82.6156 158° South  Level FlightAware Approximate
04:20PM 35.3677 -82.5920 158° South  Level FlightAware Approximate
04:21PM 35.3200 -82.5683 158° South  Level FlightAware Approximate
04:22PM 35.2716 -82.5473 161° South  Level FlightAware Approximate
04:23PM 35.2230 -82.5265 161° South  Level FlightAware Approximate
04:24PM 35.1745 -82.5057 161° South  Level FlightAware Approximate
04:25PM 35.1260 -82.4849 161° South  Level FlightAware Approximate
04:26PM 35.0785 -82.4618 141° Southeast  Level FlightAware Approximate
04:27PM 35.0329 -82.4344 159° South  Level FlightAware Approximate
04:28PM 34.9848 -82.4121 159° South  Level FlightAware Approximate
04:29PM 34.9367 -82.3899 159° South  Level FlightAware Approximate
04:30PM 34.8886 -82.3678 159° South  Level FlightAware Approximate
04:31PM 34.8479 -82.3500 180° South  Level Estimated
04:32PM 34.8479 -82.3500 180° South  Level Estimated
04:33PM 34.8479 -82.3500 180° South  Level Estimated
04:34PM 34.8479 -82.3500 180° South  Level Estimated
04:35PM 34.8479 -82.3500 180° South  Level Estimated
04:36PM 34.8479 -82.3500 180° South  Level Estimated